Time;durP1;ratioP1;P1;durP2;ratioP2;P2;SDS_P1;SDS_P2;PMS_P1;PMS_P2;Temp;Humidity;BMP_temperature;BMP_pressure;BME280_temperature;BME280_humidity;BME280_pressure;Samples;Min_cycle;Max_cycle;Signal;HPM_P1;HPM_P2
2021/10/17 00:00:08;;;;;;;;;;;;;;;3.60;96.67;96441.69;5088329;28;19958;-83
2021/10/17 00:02:35;;;;;;;;;;;;;;;3.51;96.91;96446.25;5079170;28;19932;-82
2021/10/17 00:05:01;;;;;;;;;;;;;;;3.49;97.36;96443.00;5080355;28;20356;-81
2021/10/17 00:07:26;;;;;;;;;;;;;;;3.63;97.48;96438.75;5081795;28;19928;-83
2021/10/17 00:09:52;;;;;;;;;;;;;;;3.58;97.60;96452.31;5085175;28;19984;-81
2021/10/17 00:12:17;;;;;;;;;;;;;;;3.53;97.60;96443.44;5095535;28;19919;-81
2021/10/17 00:14:45;;;;;;;;;;;;;;;3.48;97.82;96448.41;5087335;28;19925;-82
2021/10/17 00:17:10;;;;;;;;;;;;;;;3.60;97.83;96446.91;5082455;28;19925;-82
2021/10/17 00:19:40;;;;;;;;;;;;;;;3.65;97.49;96452.34;5083296;28;20441;-82
2021/10/17 00:22:05;;;;;;;;;;;;;;;3.63;97.50;96452.56;5084710;28;19951;-81
2021/10/17 00:24:31;;;;;;;;;;;;;;;3.53;97.16;96451.25;5084709;28;19924;-80
2021/10/17 00:26:57;;;;;;;;;;;;;;;3.52;97.64;96457.44;5084561;28;20408;-81
2021/10/17 00:29:23;;;;;;;;;;;;;;;3.61;97.25;96461.53;5086836;28;19924;-82
2021/10/17 00:31:51;;;;;;;;;;;;;;;3.53;97.61;96465.06;5096711;28;19938;-79
2021/10/17 00:34:18;;;;;;;;;;;;;;;3.48;97.96;96458.78;5099868;28;19931;-81
2021/10/17 00:36:45;;;;;;;;;;;;;;;3.48;97.97;96462.19;5098163;28;20032;-80
2021/10/17 00:39:10;;;;;;;;;;;;;;;3.52;97.70;96462.66;5084203;28;19940;-81
2021/10/17 00:41:35;;;;;;;;;;;;;;;3.51;97.52;96461.03;5084249;28;19989;-82
2021/10/17 00:44:04;;;;;;;;;;;;;;;3.51;97.15;96467.03;5093053;28;19924;-80
2021/10/17 00:46:32;;;;;;;;;;;;;;;3.49;97.08;96465.59;5099205;28;19912;-81
2021/10/17 00:48:58;;;;;;;;;;;;;;;3.53;96.75;96466.84;5088141;28;19932;-82
2021/10/17 00:51:23;;;;;;;;;;;;;;;3.46;97.64;96458.19;5084631;28;19928;-82
2021/10/17 00:53:53;;;;;;;;;;;;;;;3.47;97.88;96457.19;5082608;28;19931;-83
2021/10/17 00:56:19;;;;;;;;;;;;;;;3.48;97.46;96456.19;5083043;28;19924;-81
2021/10/17 00:58:44;;;;;;;;;;;;;;;3.46;97.18;96455.59;5082897;28;20395;-82
2021/10/17 01:01:09;;;;;;;;;;;;;;;3.41;97.18;96450.94;5085356;28;20307;-82
2021/10/17 01:03:35;;;;;;;;;;;;;;;3.37;96.81;96449.69;5083570;28;19924;-81
2021/10/17 01:06:02;;;;;;;;;;;;;;;3.29;97.43;96453.22;5083797;28;19929;-83
2021/10/17 01:08:27;;;;;;;;;;;;;;;3.25;97.45;96449.38;5086827;28;19954;-81
2021/10/17 01:10:55;;;;;;;;;;;;;;;3.34;97.73;96450.88;5085395;28;19925;-82
2021/10/17 01:13:21;;;;;;;;;;;;;;;3.26;97.36;96448.38;5092163;28;19912;-82
2021/10/17 01:15:49;;;;;;;;;;;;;;;3.29;97.22;96437.63;5091004;28;19954;-83
2021/10/17 01:18:17;;;;;;;;;;;;;;;3.23;96.75;96442.72;5091586;28;19932;-82
2021/10/17 01:20:44;;;;;;;;;;;;;;;3.25;96.77;96440.75;5090938;28;19931;-82
2021/10/17 01:23:12;;;;;;;;;;;;;;;3.20;96.76;96443.91;5089574;28;19960;-82
2021/10/17 01:25:40;;;;;;;;;;;;;;;3.13;97.07;96437.84;5088314;28;19928;-82
2021/10/17 01:28:06;;;;;;;;;;;;;;;3.11;97.02;96442.41;5088096;28;19932;-83
2021/10/17 01:30:31;;;;;;;;;;;;;;;3.09;97.54;96437.41;5094043;28;19976;-81
2021/10/17 01:32:59;;;;;;;;;;;;;;;3.12;97.15;96436.22;5095260;28;19983;-82
2021/10/17 01:35:25;;;;;;;;;;;;;;;3.13;96.90;96433.44;5086151;28;19932;-83
2021/10/17 01:37:52;;;;;;;;;;;;;;;3.10;96.96;96438.19;5082256;28;19924;-83
2021/10/17 01:40:20;;;;;;;;;;;;;;;3.12;96.68;96431.00;5083362;28;19995;-83
2021/10/17 01:42:45;;;;;;;;;;;;;;;3.09;96.77;96436.59;5086700;28;20388;-83
2021/10/17 01:45:11;;;;;;;;;;;;;;;3.07;96.42;96433.38;5085881;28;20030;-82
2021/10/17 01:47:37;;;;;;;;;;;;;;;3.04;96.40;96438.94;5085402;28;19928;-81
2021/10/17 01:50:02;;;;;;;;;;;;;;;3.02;96.51;96433.13;5083600;28;19925;-81
2021/10/17 01:52:31;;;;;;;;;;;;;;;2.97;96.63;96422.47;5083237;28;20085;-82
2021/10/17 01:54:58;;;;;;;;;;;;;;;3.00;96.19;96429.88;5085089;28;19928;-80
2021/10/17 01:57:23;;;;;;;;;;;;;;;3.05;96.26;96427.53;5093670;28;19924;-82
2021/10/17 01:59:49;;;;;;;;;;;;;;;3.03;95.72;96424.34;5089635;28;19924;-83
2021/10/17 02:02:17;;;;;;;;;;;;;;;2.92;95.72;96420.41;5086671;28;19925;-80
2021/10/17 02:04:45;;;;;;;;;;;;;;;2.86;95.70;96419.34;5092429;28;19984;-81
2021/10/17 02:07:10;;;;;;;;;;;;;;;2.83;96.17;96419.69;5088687;28;19948;-83
2021/10/17 02:09:36;;;;;;;;;;;;;;;2.78;96.54;96416.84;5085313;28;20371;-80
2021/10/17 02:12:05;;;;;;;;;;;;;;;2.82;96.82;96415.50;5096923;28;19920;-81
2021/10/17 02:14:30;;;;;;;;;;;;;;;2.79;97.22;96415.84;5090230;28;19974;-83
2021/10/17 02:16:56;;;;;;;;;;;;;;;2.74;97.27;96412.97;5086258;28;19929;-82
2021/10/17 02:19:21;;;;;;;;;;;;;;;2.75;97.28;96414.63;5080817;28;20307;-82
2021/10/17 02:21:46;;;;;;;;;;;;;;;2.66;97.45;96410.50;5095232;28;19912;-80
2021/10/17 02:24:12;;;;;;;;;;;;;;;2.62;97.98;96407.44;5085045;28;19924;-83
2021/10/17 02:26:38;;;;;;;;;;;;;;;2.59;98.17;96409.63;5081983;28;19925;-83
2021/10/17 02:29:07;;;;;;;;;;;;;;;2.49;98.39;96398.69;5082163;28;19931;-83
2021/10/17 02:31:32;;;;;;;;;;;;;;;2.41;98.75;96407.38;5081343;28;19929;-82
2021/10/17 02:34:00;;;;;;;;;;;;;;;2.38;98.81;96412.13;5083802;28;19931;-83
2021/10/17 02:36:25;;;;;;;;;;;;;;;2.30;99.31;96405.22;5093675;28;19924;-82
2021/10/17 02:38:51;;;;;;;;;;;;;;;2.26;100.00;96409.16;5086362;28;19931;-80
2021/10/17 02:41:16;;;;;;;;;;;;;;;2.25;99.70;96408.34;5083813;28;19935;-83
2021/10/17 02:43:42;;;;;;;;;;;;;;;2.25;100.00;96407.56;5081674;28;19925;-83
2021/10/17 02:46:11;;;;;;;;;;;;;;;2.26;99.63;96415.19;5081629;28;19932;-84
2021/10/17 02:48:36;;;;;;;;;;;;;;;2.21;99.94;96412.31;5091286;28;19924;-81
2021/10/17 02:51:01;;;;;;;;;;;;;;;2.20;100.00;96423.66;5096729;28;19966;-83
2021/10/17 02:53:29;;;;;;;;;;;;;;;2.22;99.68;96418.31;5081130;28;19924;-82
2021/10/17 02:55:54;;;;;;;;;;;;;;;2.10;100.00;96412.75;5080987;28;20257;-84
2021/10/17 02:58:20;;;;;;;;;;;;;;;2.04;100.00;96416.03;5080786;28;20393;-83
2021/10/17 03:00:45;;;;;;;;;;;;;;;2.08;100.00;96409.50;5080573;28;19951;-82
2021/10/17 03:03:12;;;;;;;;;;;;;;;2.17;100.00;96410.25;5081871;28;19928;-84
2021/10/17 03:05:37;;;;;;;;;;;;;;;2.08;100.00;96412.91;5079941;28;19928;-81
2021/10/17 03:08:05;;;;;;;;;;;;;;;2.02;100.00;96408.44;5081970;28;21446;-84
2021/10/17 03:10:31;;;;;;;;;;;;;;;2.07;100.00;96413.09;5081373;28;19924;-83
2021/10/17 03:12:56;;;;;;;;;;;;;;;2.09;100.00;96413.72;5080857;28;19931;-82
2021/10/17 03:15:21;;;;;;;;;;;;;;;2.20;100.00;96413.28;5079033;28;19924;-82
2021/10/17 03:17:47;;;;;;;;;;;;;;;2.05;100.00;96417.66;5079840;28;19928;-81
2021/10/17 03:20:14;;;;;;;;;;;;;;;1.95;100.00;96422.28;5090942;28;19924;-82
2021/10/17 03:22:40;;;;;;;;;;;;;;;2.00;100.00;96425.97;5090719;28;19983;-79
2021/10/17 03:25:05;;;;;;;;;;;;;;;1.96;100.00;96414.31;5087855;28;19925;-81
2021/10/17 03:27:31;;;;;;;;;;;;;;;2.00;100.00;96420.78;5082304;28;19925;-82
2021/10/17 03:29:56;;;;;;;;;;;;;;;2.03;100.00;96404.03;5081491;28;19935;-83
2021/10/17 03:32:24;;;;;;;;;;;;;;;2.12;100.00;96415.97;5079236;28;19925;-82
2021/10/17 03:34:49;;;;;;;;;;;;;;;2.07;100.00;96416.50;5078722;28;19925;-82
2021/10/17 03:37:16;;;;;;;;;;;;;;;2.09;100.00;96413.72;5079562;28;19978;-82
2021/10/17 03:39:41;;;;;;;;;;;;;;;2.15;100.00;96413.00;5083179;28;20076;-83
2021/10/17 03:42:09;;;;;;;;;;;;;;;2.13;100.00;96414.97;5083921;28;19929;-81
2021/10/17 03:44:34;;;;;;;;;;;;;;;2.15;100.00;96413.00;5081307;28;20020;-82
2021/10/17 03:46:59;;;;;;;;;;;;;;;2.15;100.00;96413.00;5076263;28;19994;-82
2021/10/17 03:49:25;;;;;;;;;;;;;;;2.12;100.00;96422.94;5079015;28;19939;-82
2021/10/17 03:51:50;;;;;;;;;;;;;;;2.13;100.00;96414.97;5077192;28;19924;-82
2021/10/17 03:54:19;;;;;;;;;;;;;;;2.21;100.00;96419.28;5081962;28;19924;-83
2021/10/17 03:56:45;;;;;;;;;;;;;;;2.32;100.00;96424.03;5085815;28;19984;-80
2021/10/17 03:59:10;;;;;;;;;;;;;;;2.34;100.00;96417.69;5098277;28;19923;-81
2021/10/17 04:01:35;;;;;;;;;;;;;;;2.38;100.00;96417.31;5084754;28;19959;-83
2021/10/17 04:04:03;;;;;;;;;;;;;;;2.36;100.00;96414.88;5079285;28;19959;-82
2021/10/17 04:06:28;;;;;;;;;;;;;;;2.33;100.00;96421.25;5081459;28;20304;-83
2021/10/17 04:08:54;;;;;;;;;;;;;;;2.25;100.00;96413.53;5080464;28;19935;-82
2021/10/17 04:11:20;;;;;;;;;;;;;;;2.17;100.00;96410.25;5092372;28;19977;-80
2021/10/17 04:13:46;;;;;;;;;;;;;;;2.22;100.00;96407.91;5099345;28;19913;-81
2021/10/17 04:16:11;;;;;;;;;;;;;;;2.27;100.00;96414.19;5095742;28;19999;-82
2021/10/17 04:18:39;;;;;;;;;;;;;;;2.33;100.00;96410.88;5106913;22;20071;-77
2021/10/17 04:21:04;;;;;;;;;;;;;;;2.47;100.00;96418.81;5058676;28;19925;-77
2021/10/17 04:23:29;;;;;;;;;;;;;;;2.41;100.00;96411.75;5061652;28;19931;-77
2021/10/17 04:25:55;;;;;;;;;;;;;;;2.46;100.00;96415.44;5058164;28;20320;-78
2021/10/17 04:28:21;;;;;;;;;;;;;;;2.56;100.00;96415.16;5057009;28;19932;-77
2021/10/17 04:30:47;;;;;;;;;;;;;;;2.52;100.00;96419.09;5059950;28;20011;-78
2021/10/17 04:33:12;;;;;;;;;;;;;;;2.46;100.00;96415.44;5064077;28;20400;-78
2021/10/17 04:35:39;;;;;;;;;;;;;;;2.47;100.00;96416.22;5059870;28;19929;-78
2021/10/17 04:38:08;;;;;;;;;;;;;;;2.53;100.00;96410.31;5058653;28;19931;-78
2021/10/17 04:40:35;;;;;;;;;;;;;;;2.58;100.00;96413.19;5058510;28;19932;-77
2021/10/17 04:43:00;;;;;;;;;;;;;;;2.60;100.00;96408.63;5058180;28;19925;-76
2021/10/17 04:45:27;;;;;;;;;;;;;;;2.76;100.00;96415.41;5057794;28;19936;-78
2021/10/17 04:47:52;;;;;;;;;;;;;;;2.82;100.00;96410.28;5057181;28;19931;-78
2021/10/17 04:50:18;;;;;;;;;;;;;;;2.79;100.00;96413.25;5057928;28;20299;-77
2021/10/17 04:52:43;;;;;;;;;;;;;;;2.76;100.00;96411.03;5057303;28;19990;-77
2021/10/17 04:55:09;;;;;;;;;;;;;;;2.75;100.00;96406.81;5056969;28;19971;-77
2021/10/17 04:57:34;;;;;;;;;;;;;;;2.75;100.00;96404.22;5039879;28;19986;-77
2021/10/17 05:00:00;;;;;;;;;;;;;;;2.75;100.00;96401.63;5063174;28;20432;-78
2021/10/17 05:02:27;;;;;;;;;;;;;;;2.70;100.00;96406.56;5043151;28;19925;-78
2021/10/17 05:04:52;;;;;;;;;;;;;;;2.67;100.00;96406.91;5039273;28;20146;-78
2021/10/17 05:07:17;;;;;;;;;;;;;;;2.67;100.00;96401.72;5057872;28;20132;-78
2021/10/17 05:09:43;;;;;;;;;;;;;;;2.63;100.00;96405.66;5057207;28;19931;-78
2021/10/17 05:12:08;;;;;;;;;;;;;;;2.81;100.00;96408.69;5057455;28;19933;-78
2021/10/17 05:14:36;;;;;;;;;;;;;;;2.86;100.00;96413.34;5058007;28;19924;-78
2021/10/17 05:17:02;;;;;;;;;;;;;;;2.82;100.00;96405.09;5040003;28;19925;-78
2021/10/17 05:19:29;;;;;;;;;;;;;;;2.93;100.00;96413.41;5039607;28;19932;-78
2021/10/17 05:21:54;;;;;;;;;;;;;;;2.89;100.00;96408.56;5040196;28;20353;-78
2021/10/17 05:24:22;;;;;;;;;;;;;;;3.00;100.00;96409.09;5057551;28;19956;-77
2021/10/17 05:26:47;;;;;;;;;;;;;;;2.91;100.00;96413.59;5057291;28;19925;-78
2021/10/17 05:29:15;;;;;;;;;;;;;;;2.83;100.00;96414.50;5058667;28;20464;-78
2021/10/17 05:31:40;;;;;;;;;;;;;;;3.04;100.00;96418.94;5057926;28;19929;-78
2021/10/17 05:34:05;;;;;;;;;;;;;;;3.01;100.00;96408.09;5057970;28;20343;-78
2021/10/17 05:36:34;;;;;;;;;;;;;;;3.18;100.00;96417.31;5058731;28;19925;-78
2021/10/17 05:39:02;;;;;;;;;;;;;;;3.13;100.00;96414.44;5042728;28;20377;-77
2021/10/17 05:41:27;;;;;;;;;;;;;;;3.18;100.00;96414.69;5056812;28;19925;-78
2021/10/17 05:43:53;;;;;;;;;;;;;;;3.26;100.00;96417.19;5057146;28;19979;-78
2021/10/17 05:46:21;;;;;;;;;;;;;;;3.24;100.00;96419.16;5054507;28;19932;-78
2021/10/17 05:48:50;;;;;;;;;;;;;;;3.25;99.59;96412.16;5055881;28;19939;-78
2021/10/17 05:51:15;;;;;;;;;;;;;;;3.24;98.46;96419.16;5056303;28;20019;-78
2021/10/17 05:53:42;;;;;;;;;;;;;;;3.21;98.67;96416.13;5057609;28;20040;-78
2021/10/17 05:56:07;;;;;;;;;;;;;;;3.01;98.63;96421.09;5040001;28;20000;-78
2021/10/17 05:58:32;;;;;;;;;;;;;;;3.10;99.05;96425.19;5039388;28;20388;-78
2021/10/17 06:00:58;;;;;;;;;;;;;;;3.14;98.67;96426.44;5056161;28;19925;-77
2021/10/17 06:03:25;;;;;;;;;;;;;;;3.19;97.88;96425.91;5055949;28;20346;-78
2021/10/17 06:05:59;;;;;;;;;;;;;;;3.22;97.51;96428.94;5037569;28;20385;-78
2021/10/17 06:08:24;;;;;;;;;;;;;;;3.16;97.05;96437.47;5063633;28;19955;-77
2021/10/17 06:10:52;;;;;;;;;;;;;;;3.29;97.23;96436.81;5076811;28;19913;-77
2021/10/17 06:13:20;;;;;;;;;;;;;;;3.39;96.99;96439.91;5064217;28;19925;-77
2021/10/17 06:15:45;;;;;;;;;;;;;;;3.22;96.79;96441.91;5039554;28;19971;-77
2021/10/17 06:18:11;;;;;;;;;;;;;;;3.19;97.22;96434.50;5066056;28;19924;-77
2021/10/17 06:20:36;;;;;;;;;;;;;;;3.37;97.11;96440.09;5054019;28;19943;-78
2021/10/17 06:23:01;;;;;;;;;;;;;;;3.35;97.38;96444.69;5071461;28;19940;-78
2021/10/17 06:25:27;;;;;;;;;;;;;;;3.37;97.91;96449.69;5068176;28;19960;-78
2021/10/17 06:27:55;;;;;;;;;;;;;;;3.45;97.33;96451.38;5039848;28;20043;-78
2021/10/17 06:30:21;;;;;;;;;;;;;;;3.52;97.44;96452.25;5038785;28;20331;-78
2021/10/17 06:32:48;;;;;;;;;;;;;;;3.56;97.38;96448.28;5057001;28;19971;-78
2021/10/17 06:35:13;;;;;;;;;;;;;;;3.58;97.63;96451.50;5057301;28;19925;-78
2021/10/17 06:37:39;;;;;;;;;;;;;;;3.67;97.91;96446.00;5057543;28;19946;-78
2021/10/17 06:40:05;;;;;;;;;;;;;;;3.69;98.51;96462.22;5057644;28;19924;-78
2021/10/17 06:42:30;;;;;;;;;;;;;;;3.75;99.42;96455.44;5056817;28;20293;-78
2021/10/17 06:44:57;;;;;;;;;;;;;;;3.69;99.87;96459.59;5039924;28;19924;-78
2021/10/17 06:47:22;;;;;;;;;;;;;;;3.65;100.00;96466.16;5056619;28;19925;-77
2021/10/17 06:49:48;;;;;;;;;;;;;;;3.71;100.00;96462.00;5056170;28;19928;-78
2021/10/17 06:52:13;;;;;;;;;;;;;;;3.72;100.00;96466.25;5040482;28;19925;-77
2021/10/17 06:54:38;;;;;;;;;;;;;;;3.77;100.00;96469.09;5059216;28;20027;-77
2021/10/17 06:57:04;;;;;;;;;;;;;;;3.91;100.00;96463.00;5044102;28;19925;-78
2021/10/17 06:59:29;;;;;;;;;;;;;;;3.84;100.00;96467.34;5058680;28;19932;-78
2021/10/17 07:01:56;;;;;;;;;;;;;;;3.88;100.00;96473.81;5056978;28;19924;-77
2021/10/17 07:04:21;;;;;;;;;;;;;;;4.00;100.00;96481.09;5055675;28;20444;-77
2021/10/17 07:06:47;;;;;;;;;;;;;;;4.09;100.00;96474.75;5055492;28;19960;-77
2021/10/17 07:09:12;;;;;;;;;;;;;;;4.19;100.00;96480.44;5056012;28;19987;-77
2021/10/17 07:11:38;;;;;;;;;;;;;;;4.35;100.00;96484.56;5062135;28;19925;-77
2021/10/17 07:14:03;;;;;;;;;;;;;;;4.39;100.00;96485.81;5045822;28;19932;-78
2021/10/17 07:16:31;;;;;;;;;;;;;;;4.47;100.00;96473.44;5056102;28;19929;-77
2021/10/17 07:18:57;;;;;;;;;;;;;;;4.53;100.00;96471.06;5054711;28;19925;-78
2021/10/17 07:21:23;;;;;;;;;;;;;;;4.52;100.00;96479.88;5055294;28;19925;-78
2021/10/17 07:23:48;;;;;;;;;;;;;;;4.48;100.00;96482.88;5060448;28;19990;-78
2021/10/17 07:26:14;;;;;;;;;;;;;;;4.47;100.00;96480.47;5039413;28;19970;-78
2021/10/17 07:28:40;;;;;;;;;;;;;;;4.80;100.00;96469.44;5054992;28;19949;-78
2021/10/17 07:31:05;;;;;;;;;;;;;;;4.75;100.00;96475.22;5054670;28;19929;-78
2021/10/17 07:33:31;;;;;;;;;;;;;;;4.76;100.00;96481.22;5054739;28;20453;-78
2021/10/17 07:35:57;;;;;;;;;;;;;;;4.92;99.38;96481.72;5037079;28;19924;-78
2021/10/17 07:38:23;;;;;;;;;;;;;;;4.88;99.69;96488.31;5039724;28;19936;-77
2021/10/17 07:40:49;;;;;;;;;;;;;;;4.88;98.61;96485.69;5057964;28;19929;-77
2021/10/17 07:43:14;;;;;;;;;;;;;;;4.77;98.97;96494.06;5040146;28;19972;-78
2021/10/17 07:45:42;;;;;;;;;;;;;;;4.77;99.73;96491.44;5055241;28;19963;-77
2021/10/17 07:48:08;;;;;;;;;;;;;;;5.00;99.26;96494.59;5054800;28;19925;-77
2021/10/17 07:50:34;;;;;;;;;;;;;;;5.00;99.37;96493.78;5055015;28;19971;-78
2021/10/17 07:53:03;;;;;;;;;;;;;;;5.06;98.91;96500.00;5037382;28;19933;-77
2021/10/17 07:55:28;;;;;;;;;;;;;;;4.98;98.12;96493.97;5037710;28;20015;-78
2021/10/17 07:57:54;;;;;;;;;;;;;;;5.08;99.08;96492.81;5054822;28;19956;-77
2021/10/17 08:00:21;;;;;;;;;;;;;;;5.10;97.72;96498.63;5054317;28;19991;-77
2021/10/17 08:02:46;;;;;;;;;;;;;;;5.09;97.36;96497.03;5037244;28;20300;-78
2021/10/17 08:05:14;;;;;;;;;;;;;;;5.00;97.82;96506.81;5059080;28;19960;-77
2021/10/17 08:07:40;;;;;;;;;;;;;;;5.05;96.97;96495.81;5056653;28;20335;-77
2021/10/17 08:10:07;;;;;;;;;;;;;;;5.08;97.87;96505.84;5059482;28;19964;-78
2021/10/17 08:12:32;;;;;;;;;;;;;;;5.07;97.97;96512.88;5059859;28;19929;-79
2021/10/17 08:14:58;;;;;;;;;;;;;;;5.20;97.64;96504.28;5055989;28;19931;-78
2021/10/17 08:17:23;;;;;;;;;;;;;;;5.36;96.43;96509.19;5059840;28;19951;-78
2021/10/17 08:19:51;;;;;;;;;;;;;;;5.35;96.59;96506.78;5058556;28;19929;-78
2021/10/17 08:22:17;;;;;;;;;;;;;;;5.37;96.81;96508.16;5055451;28;19924;-78
2021/10/17 08:24:42;;;;;;;;;;;;;;;5.46;96.40;96514.84;5056360;28;20015;-78
2021/10/17 08:27:09;;;;;;;;;;;;;;;5.45;96.41;96510.63;5056407;28;19925;-78
2021/10/17 08:29:34;;;;;;;;;;;;;;;5.71;96.61;96522.94;5037154;28;19964;-78
2021/10/17 08:31:59;;;;;;;;;;;;;;;5.56;97.01;96516.28;5056899;28;20269;-79
2021/10/17 08:34:27;;;;;;;;;;;;;;;5.73;96.58;96515.72;5038534;28;19932;-78
2021/10/17 08:36:52;;;;;;;;;;;;;;;5.93;96.87;96515.78;5038970;28;20399;-78
2021/10/17 08:39:20;;;;;;;;;;;;;;;5.73;95.90;96514.91;5059872;28;19928;-78
2021/10/17 08:41:46;;;;;;;;;;;;;;;5.94;96.38;96516.59;5062383;28;19925;-78
2021/10/17 08:44:13;;;;;;;;;;;;;;;5.87;96.06;96519.16;5045179;28;19983;-78
2021/10/17 08:46:39;;;;;;;;;;;;;;;5.99;95.47;96520.22;5077604;28;19925;-77
2021/10/17 08:49:07;;;;;;;;;;;;;;;5.84;96.41;96516.94;5059016;28;19932;-78
2021/10/17 08:51:32;;;;;;;;;;;;;;;6.18;95.51;96521.22;5063671;28;20035;-79
2021/10/17 08:53:59;;;;;;;;;;;;;;;6.19;94.25;96519.41;5061343;28;19924;-79
2021/10/17 08:56:24;;;;;;;;;;;;;;;6.01;93.68;96507.75;5042957;28;19932;-79
2021/10/17 08:58:49;;;;;;;;;;;;;;;6.21;93.99;96523.44;5060148;28;20384;-78
2021/10/17 09:01:17;;;;;;;;;;;;;;;6.47;92.79;96529.69;5058616;28;20401;-78
2021/10/17 09:03:43;;;;;;;;;;;;;;;6.35;91.95;96523.44;5059010;28;19936;-78
2021/10/17 09:06:15;;;;;;;;;;;;;;;6.17;92.68;96522.22;5058740;28;20388;-78
2021/10/17 09:08:40;;;;;;;;;;;;;;;6.35;92.54;96529.50;5059581;28;19979;-77
2021/10/17 09:11:08;;;;;;;;;;;;;;;6.60;90.93;96526.25;5059522;28;19925;-78
2021/10/17 09:13:33;;;;;;;;;;;;;;;6.48;90.78;96526.88;5058944;28;20385;-78
2021/10/17 09:15:59;;;;;;;;;;;;;;;6.46;90.85;96531.50;5058983;28;20019;-78
2021/10/17 09:18:26;;;;;;;;;;;;;;;6.49;91.70;96528.47;5058286;28;20388;-78
2021/10/17 09:20:59;;;;;;;;;;;;;;;6.68;90.56;96518.22;5041473;28;19932;-79
2021/10/17 09:23:35;;;;;;;;;;;;;;;6.51;90.88;96523.88;5059328;28;19925;-77
2021/10/17 09:26:06;;;;;;;;;;;;;;;6.35;90.93;96526.06;5040668;28;19929;-78
2021/10/17 09:28:35;;;;;;;;;;;;;;;6.63;89.88;96520.63;5059724;28;19971;-78
2021/10/17 09:31:02;;;;;;;;;;;;;;;6.72;89.90;96519.41;5059655;28;19925;-78
2021/10/17 09:33:30;;;;;;;;;;;;;;;6.68;90.39;96518.22;5058778;28;20296;-78
2021/10/17 09:35:58;;;;;;;;;;;;;;;6.83;88.93;96521.38;5057969;28;20027;-78
2021/10/17 09:38:38;;;;;;;;;;;;;;;6.85;89.83;96522.00;5057634;28;19925;-78
2021/10/17 09:41:14;;;;;;;;;;;;;;;7.27;88.61;96519.88;5039051;28;19928;-78
2021/10/17 09:43:43;;;;;;;;;;;;;;;7.34;88.05;96524.06;5041885;28;19935;-78
2021/10/17 09:46:09;;;;;;;;;;;;;;;7.24;87.57;96520.28;5062158;28;19924;-77
2021/10/17 09:48:36;;;;;;;;;;;;;;;7.08;88.04;96514.50;5061776;28;20407;-78
2021/10/17 09:51:02;;;;;;;;;;;;;;;7.33;87.26;96519.84;5060803;28;20019;-77
2021/10/17 09:53:39;;;;;;;;;;;;;;;7.44;87.51;96518.41;5059814;28;19925;-78
2021/10/17 09:56:05;;;;;;;;;;;;;;;7.47;87.00;96511.94;5042248;28;19928;-78
2021/10/17 09:58:31;;;;;;;;;;;;;;;7.60;86.91;96512.69;5058668;28;19983;-78
2021/10/17 10:00:56;;;;;;;;;;;;;;;7.55;86.19;96515.13;5063176;28;19924;-78
2021/10/17 10:03:23;;;;;;;;;;;;;;;7.39;87.08;96509.56;5072919;28;19932;-78
2021/10/17 10:05:53;;;;;;;;;;;;;;;7.28;87.00;96517.06;5066221;28;19964;-78
2021/10/17 10:08:21;;;;;;;;;;;;;;;7.32;87.65;96509.59;5042907;28;19925;-77
2021/10/17 10:10:49;;;;;;;;;;;;;;;7.56;87.08;96514.09;5045378;28;20639;-78
2021/10/17 10:13:15;;;;;;;;;;;;;;;7.59;86.00;96508.47;5062533;28;19978;-79
2021/10/17 10:15:41;;;;;;;;;;;;;;;7.87;86.00;96515.97;5041046;28;19951;-78
2021/10/17 10:18:08;;;;;;;;;;;;;;;7.71;86.14;96515.66;5056801;28;19924;-78
2021/10/17 10:20:33;;;;;;;;;;;;;;;7.87;85.27;96521.19;5094510;22;20013;-79
2021/10/17 10:23:00;;;;;;;;;;;;;;;7.67;86.37;96517.88;5080887;28;19924;-79
2021/10/17 10:25:26;;;;;;;;;;;;;;;7.59;86.52;96515.53;5080136;28;20384;-79
2021/10/17 10:27:51;;;;;;;;;;;;;;;7.71;86.39;96513.84;5095364;28;19978;-79
2021/10/17 10:30:17;;;;;;;;;;;;;;;8.04;85.38;96513.63;5093078;28;20396;-79
2021/10/17 10:32:43;;;;;;;;;;;;;;;8.04;84.67;96511.00;5060589;28;20442;-79
2021/10/17 10:35:21;;;;;;;;;;;;;;;8.05;85.19;96509.19;5060198;28;19924;-80
2021/10/17 10:37:49;;;;;;;;;;;;;;;8.08;85.12;96519.25;5057752;28;19978;-79
2021/10/17 10:40:18;;;;;;;;;;;;;;;8.18;84.82;96516.16;5059972;28;19929;-80
2021/10/17 10:42:45;;;;;;;;;;;;;;;8.18;84.91;96506.50;5059709;28;19925;-80
2021/10/17 10:45:21;;;;;;;;;;;;;;;8.33;84.21;96508.78;5059725;28;19924;-80
2021/10/17 10:47:47;;;;;;;;;;;;;;;8.40;84.03;96504.34;5074476;28;20043;-78
2021/10/17 10:50:13;;;;;;;;;;;;;;;8.29;84.51;96505.00;5071605;28;19933;-77
2021/10/17 10:52:41;;;;;;;;;;;;;;;8.40;84.35;96509.59;5061963;28;19924;-80
2021/10/17 10:55:09;;;;;;;;;;;;;;;8.37;84.14;96510.00;5059906;28;20392;-79
2021/10/17 10:57:39;;;;;;;;;;;;;;;8.32;84.46;96502.75;5060209;28;20294;-80
2021/10/17 11:00:06;;;;;;;;;;;;;;;8.43;84.07;96509.13;5059010;28;19947;-79
2021/10/17 11:02:32;;;;;;;;;;;;;;;8.40;83.62;96504.34;5056950;28;20019;-78
2021/10/17 11:05:01;;;;;;;;;;;;;;;8.50;83.64;96501.22;5058424;28;19967;-80
2021/10/17 11:07:34;;;;;;;;;;;;;;;8.42;83.94;96504.91;5057457;28;19932;-78
2021/10/17 11:10:17;;;;;;;;;;;;;;;8.54;83.75;96497.94;5059198;28;19947;-79
2021/10/17 11:12:44;;;;;;;;;;;;;;;8.25;84.51;96499.38;5052101;28;20282;-82
2021/10/17 11:15:13;;;;;;;;;;;;;;;8.22;84.50;96499.78;5059823;28;19925;-80
2021/10/17 11:17:46;;;;;;;;;;;;;;;8.27;84.28;96492.09;5059646;28;20405;-79
2021/10/17 11:20:15;;;;;;;;;;;;;;;8.37;83.83;96496.91;5091306;28;19960;-77
2021/10/17 11:22:40;;;;;;;;;;;;;;;8.35;84.03;96493.66;5059169;28;19956;-79
2021/10/17 11:25:12;;;;;;;;;;;;;;;8.47;84.02;96489.34;5058554;28;19924;-79
2021/10/17 11:27:38;;;;;;;;;;;;;;;8.59;83.17;96478.94;5059812;28;19924;-78
2021/10/17 11:30:06;;;;;;;;;;;;;;;8.75;82.82;96477.59;5063322;28;19966;-78
2021/10/17 11:32:31;;;;;;;;;;;;;;;8.69;83.35;96476.66;5060641;28;19928;-79
2021/10/17 11:35:00;;;;;;;;;;;;;;;8.68;82.46;96478.47;5060027;28;20062;-79
2021/10/17 11:37:26;;;;;;;;;;;;;;;8.47;83.42;96478.06;5059134;28;19928;-79
2021/10/17 11:39:52;;;;;;;;;;;;;;;8.48;83.96;96477.84;5059117;28;19971;-79
2021/10/17 11:42:17;;;;;;;;;;;;;;;8.65;83.69;96467.59;5058841;28;19973;-79
2021/10/17 11:44:43;;;;;;;;;;;;;;;8.61;83.31;96464.63;5057891;28;19936;-78
2021/10/17 11:47:10;;;;;;;;;;;;;;;8.48;84.61;96464.72;5059093;28;19928;-79
2021/10/17 11:49:38;;;;;;;;;;;;;;;8.61;84.66;96471.66;5059299;28;20067;-80
2021/10/17 11:52:06;;;;;;;;;;;;;;;8.76;83.68;96473.94;5059064;28;19968;-79
2021/10/17 11:54:39;;;;;;;;;;;;;;;8.86;83.04;96474.25;5060392;28;19936;-78
2021/10/17 11:57:04;;;;;;;;;;;;;;;9.25;82.50;96467.75;5057680;28;19925;-79
2021/10/17 11:59:32;;;;;;;;;;;;;;;9.04;81.88;96466.41;5059238;28;19925;-79
2021/10/17 12:01:57;;;;;;;;;;;;;;;9.04;82.74;96466.41;5058034;28;19925;-80
2021/10/17 12:04:38;;;;;;;;;;;;;;;9.22;82.82;96462.16;5060428;28;19963;-78
2021/10/17 12:07:04;;;;;;;;;;;;;;;9.18;82.16;96467.03;5060696;28;19929;-80
2021/10/17 12:09:30;;;;;;;;;;;;;;;9.47;80.19;96470.72;5059151;28;19928;-82
2021/10/17 12:11:58;;;;;;;;;;;;;;;9.55;80.05;96462.53;5060410;28;19975;-80
2021/10/17 12:14:24;;;;;;;;;;;;;;;9.46;80.36;96458.59;5062156;28;19924;-80
2021/10/17 12:16:53;;;;;;;;;;;;;;;9.50;80.33;96465.00;5064192;28;19932;-82
2021/10/17 12:19:23;;;;;;;;;;;;;;;9.35;79.87;96452.28;5063491;28;19925;-79
2021/10/17 12:21:49;;;;;;;;;;;;;;;9.36;80.83;96447.81;5064127;28;19925;-80
2021/10/17 12:24:18;;;;;;;;;;;;;;;9.69;79.47;96463.97;5063379;28;19924;-79
2021/10/17 12:26:48;;;;;;;;;;;;;;;9.78;78.65;96461.00;5062913;28;19963;-79
2021/10/17 12:29:16;;;;;;;;;;;;;;;9.73;78.23;96454.59;5064536;28;19925;-78
2021/10/17 12:31:42;;;;;;;;;;;;;;;9.64;79.03;96450.69;5061428;28;19929;-78
2021/10/17 12:34:08;;;;;;;;;;;;;;;9.45;80.71;96451.75;5060113;28;20312;-79
2021/10/17 12:36:35;;;;;;;;;;;;;;;9.36;81.23;96450.44;5061126;28;19925;-80
2021/10/17 12:39:02;;;;;;;;;;;;;;;9.39;81.33;96452.63;5061562;28;19944;-80
2021/10/17 12:41:29;;;;;;;;;;;;;;;9.41;81.04;96435.63;5063389;28;19932;-78
2021/10/17 12:43:57;;;;;;;;;;;;;;;9.62;80.45;96438.78;5061230;28;19924;-79
2021/10/17 12:46:25;;;;;;;;;;;;;;;9.80;79.74;96433.50;5061959;28;19971;-78
2021/10/17 12:48:51;;;;;;;;;;;;;;;9.68;79.60;96436.06;5061043;28;19925;-80